sensor_id;sensor_type;location;lat;lon;timestamp;pressure;altitude;pressure_sealevel;temperature;humidity
49063;BME280;34876;51.464;-0.150;2023-08-01T00:03:38;100052.93;;;22.84;49.92
49063;BME280;34876;51.464;-0.150;2023-08-01T00:06:08;100057.54;;;22.83;49.94
49063;BME280;34876;51.464;-0.150;2023-08-01T00:08:39;100056.98;;;22.82;49.97
49063;BME280;34876;51.464;-0.150;2023-08-01T00:11:11;100059.24;;;22.84;49.92
49063;BME280;34876;51.464;-0.150;2023-08-01T00:13:41;100048.60;;;22.83;49.93
49063;BME280;34876;51.464;-0.150;2023-08-01T00:16:14;100051.09;;;22.84;49.88
49063;BME280;34876;51.464;-0.150;2023-08-01T00:18:44;100051.26;;;22.83;49.90
49063;BME280;34876;51.464;-0.150;2023-08-01T00:21:13;100052.70;;;22.83;49.89
49063;BME280;34876;51.464;-0.150;2023-08-01T00:23:43;100057.68;;;22.81;49.92
49063;BME280;34876;51.464;-0.150;2023-08-01T00:26:12;100057.12;;;22.80;49.95
49063;BME280;34876;51.464;-0.150;2023-08-01T00:28:41;100055.14;;;22.82;49.91
49063;BME280;34876;51.464;-0.150;2023-08-01T00:31:10;100055.02;;;22.77;50.00
49063;BME280;34876;51.464;-0.150;2023-08-01T00:33:40;100048.52;;;22.79;49.94
49063;BME280;34876;51.464;-0.150;2023-08-01T00:36:15;100046.32;;;22.78;49.96
49063;BME280;34876;51.464;-0.150;2023-08-01T00:38:45;100042.54;;;22.79;49.94
49063;BME280;34876;51.464;-0.150;2023-08-01T00:41:15;100046.35;;;22.78;49.96
49063;BME280;34876;51.464;-0.150;2023-08-01T00:43:59;100048.14;;;22.76;50.01
49063;BME280;34876;51.464;-0.150;2023-08-01T00:46:28;100054.03;;;22.71;50.14
49063;BME280;34876;51.464;-0.150;2023-08-01T00:48:58;100052.89;;;22.71;50.17
49063;BME280;34876;51.464;-0.150;2023-08-01T00:51:29;100048.73;;;22.70;50.19
49063;BME280;34876;51.464;-0.150;2023-08-01T00:54:15;100052.36;;;22.66;50.31
49063;BME280;34876;51.464;-0.150;2023-08-01T00:57:04;100058.48;;;22.68;50.28
49063;BME280;34876;51.464;-0.150;2023-08-01T00:59:40;100057.51;;;22.69;50.24
49063;BME280;34876;51.464;-0.150;2023-08-01T01:02:10;100056.87;;;22.70;50.23
49063;BME280;34876;51.464;-0.150;2023-08-01T01:04:41;100059.34;;;22.69;50.25
49063;BME280;34876;51.464;-0.150;2023-08-01T01:07:17;100060.38;;;22.70;50.24
49063;BME280;34876;51.464;-0.150;2023-08-01T01:09:45;100054.44;;;22.68;50.27
49063;BME280;34876;51.464;-0.150;2023-08-01T01:12:15;100056.25;;;22.66;50.33
49063;BME280;34876;51.464;-0.150;2023-08-01T01:14:44;100060.21;;;22.68;50.25
49063;BME280;34876;51.464;-0.150;2023-08-01T01:17:13;100059.68;;;22.68;50.25
49063;BME280;34876;51.464;-0.150;2023-08-01T01:19:44;100062.44;;;22.67;50.28
49063;BME280;34876;51.464;-0.150;2023-08-01T01:22:14;100058.35;;;22.70;50.17
49063;BME280;34876;51.464;-0.150;2023-08-01T01:24:44;100055.98;;;22.72;50.09
49063;BME280;34876;51.464;-0.150;2023-08-01T01:27:15;100048.82;;;22.76;49.99
49063;BME280;34876;51.464;-0.150;2023-08-01T01:29:48;100044.79;;;22.75;50.01
49063;BME280;34876;51.464;-0.150;2023-08-01T01:32:33;100050.11;;;22.74;50.01
49063;BME280;34876;51.464;-0.150;2023-08-01T01:35:08;100048.28;;;22.75;49.97
49063;BME280;34876;51.464;-0.150;2023-08-01T01:37:38;100048.13;;;22.75;49.97
49063;BME280;34876;51.464;-0.150;2023-08-01T01:40:09;100047.93;;;22.76;49.92
49063;BME280;34876;51.464;-0.150;2023-08-01T01:42:41;100050.49;;;22.75;49.96
49063;BME280;34876;51.464;-0.150;2023-08-01T01:45:11;100055.10;;;22.77;49.90
49063;BME280;34876;51.464;-0.150;2023-08-01T01:47:41;100059.05;;;22.74;49.96
49063;BME280;34876;51.464;-0.150;2023-08-01T01:50:14;100060.36;;;22.76;49.91
49063;BME280;34876;51.464;-0.150;2023-08-01T01:52:44;100062.62;;;22.75;49.95
49063;BME280;34876;51.464;-0.150;2023-08-01T01:55:21;100062.93;;;22.75;49.91
49063;BME280;34876;51.464;-0.150;2023-08-01T01:57:50;100065.95;;;22.76;49.87
49063;BME280;34876;51.464;-0.150;2023-08-01T02:00:21;100059.75;;;22.75;49.92
49063;BME280;34876;51.464;-0.150;2023-08-01T02:02:49;100059.63;;;22.74;49.93
49063;BME280;34876;51.464;-0.150;2023-08-01T02:05:24;100059.24;;;22.76;49.91
49063;BME280;34876;51.464;-0.150;2023-08-01T02:07:55;100055.93;;;22.71;50.03
49063;BME280;34876;51.464;-0.150;2023-08-01T02:10:23;100052.61;;;22.74;49.95
49063;BME280;34876;51.464;-0.150;2023-08-01T02:12:53;100060.46;;;22.62;50.25
49063;BME280;34876;51.464;-0.150;2023-08-01T02:15:27;100062.53;;;22.71;50.04
49063;BME280;34876;51.464;-0.150;2023-08-01T02:17:57;100055.50;;;22.71;50.04
49063;BME280;34876;51.464;-0.150;2023-08-01T02:20:27;100056.89;;;22.40;50.71
49063;BME280;34876;51.464;-0.150;2023-08-01T02:22:57;100063.30;;;22.70;50.05
49063;BME280;34876;51.464;-0.150;2023-08-01T02:25:27;100063.96;;;22.74;49.93
49063;BME280;34876;51.464;-0.150;2023-08-01T02:27:59;100062.29;;;22.74;49.93
49063;BME280;34876;51.464;-0.150;2023-08-01T02:30:28;100060.80;;;22.75;49.91
49063;BME280;34876;51.464;-0.150;2023-08-01T02:33:03;100063.12;;;22.74;49.91
49063;BME280;34876;51.464;-0.150;2023-08-01T02:35:38;100056.03;;;22.76;49.86
49063;BME280;34876;51.464;-0.150;2023-08-01T02:38:07;100052.95;;;22.75;49.89
49063;BME280;34876;51.464;-0.150;2023-08-01T02:40:35;100055.89;;;22.64;50.19
49063;BME280;34876;51.464;-0.150;2023-08-01T02:43:05;100055.17;;;22.75;49.90
49063;BME280;34876;51.464;-0.150;2023-08-01T02:45:35;100053.96;;;22.66;50.12
49063;BME280;34876;51.464;-0.150;2023-08-01T02:48:04;100053.75;;;22.67;50.08
49063;BME280;34876;51.464;-0.150;2023-08-01T02:50:45;100055.46;;;22.73;49.93
49063;BME280;34876;51.464;-0.150;2023-08-01T02:53:20;100054.22;;;22.69;50.03
49063;BME280;34876;51.464;-0.150;2023-08-01T02:55:50;100047.76;;;22.77;49.78
49063;BME280;34876;51.464;-0.150;2023-08-01T02:58:21;100049.74;;;22.77;49.80
49063;BME280;34876;51.464;-0.150;2023-08-01T03:00:50;100053.67;;;22.74;49.90
49063;BME280;34876;51.464;-0.150;2023-08-01T03:03:25;100055.83;;;22.77;49.78
49063;BME280;34876;51.464;-0.150;2023-08-01T03:06:14;100055.26;;;22.72;49.93
49063;BME280;34876;51.464;-0.150;2023-08-01T03:08:43;100056.16;;;22.76;49.81
49063;BME280;34876;51.464;-0.150;2023-08-01T03:11:12;100053.67;;;22.75;49.83
49063;BME280;34876;51.464;-0.150;2023-08-01T03:13:42;100056.58;;;22.76;49.80
49063;BME280;34876;51.464;-0.150;2023-08-01T03:16:11;100056.18;;;22.75;49.81
49063;BME280;34876;51.464;-0.150;2023-08-01T03:18:41;100056.55;;;22.72;49.90
49063;BME280;34876;51.464;-0.150;2023-08-01T03:21:09;100057.20;;;22.75;49.81
49063;BME280;34876;51.464;-0.150;2023-08-01T03:23:40;100054.43;;;22.74;49.83
49063;BME280;34876;51.464;-0.150;2023-08-01T03:26:09;100057.03;;;22.70;49.95
49063;BME280;34876;51.464;-0.150;2023-08-01T03:28:44;100055.45;;;22.62;49.99
49063;BME280;34876;51.464;-0.150;2023-08-01T03:31:13;100052.40;;;22.74;49.81
49063;BME280;34876;51.464;-0.150;2023-08-01T03:33:43;100052.55;;;22.72;49.86
49063;BME280;34876;51.464;-0.150;2023-08-01T03:36:17;100047.55;;;22.75;49.78
49063;BME280;34876;51.464;-0.150;2023-08-01T03:38:47;100044.53;;;22.68;49.94
49063;BME280;34876;51.464;-0.150;2023-08-01T03:41:17;100046.76;;;22.72;49.85
49063;BME280;34876;51.464;-0.150;2023-08-01T03:43:46;100047.14;;;22.61;50.12
49063;BME280;34876;51.464;-0.150;2023-08-01T03:46:16;100047.26;;;22.70;49.91
49063;BME280;34876;51.464;-0.150;2023-08-01T03:48:46;100041.86;;;22.71;49.87
49063;BME280;34876;51.464;-0.150;2023-08-01T03:51:15;100044.64;;;22.71;49.84
49063;BME280;34876;51.464;-0.150;2023-08-01T03:53:44;100047.45;;;22.70;49.88
49063;BME280;34876;51.464;-0.150;2023-08-01T03:56:14;100051.21;;;22.70;49.87
49063;BME280;34876;51.464;-0.150;2023-08-01T03:58:44;100052.90;;;22.71;49.84
49063;BME280;34876;51.464;-0.150;2023-08-01T04:01:14;100049.15;;;22.71;49.82
49063;BME280;34876;51.464;-0.150;2023-08-01T04:03:43;100044.59;;;22.70;49.85
49063;BME280;34876;51.464;-0.150;2023-08-01T04:06:12;100041.44;;;22.71;49.80
49063;BME280;34876;51.464;-0.150;2023-08-01T04:08:41;100042.04;;;22.72;49.74
49063;BME280;34876;51.464;-0.150;2023-08-01T04:11:11;100043.78;;;22.71;49.78
49063;BME280;34876;51.464;-0.150;2023-08-01T04:13:41;100045.02;;;22.70;49.79
49063;BME280;34876;51.464;-0.150;2023-08-01T04:16:14;100051.81;;;22.70;49.80
49063;BME280;34876;51.464;-0.150;2023-08-01T04:18:44;100051.99;;;22.67;49.87
49063;BME280;34876;51.464;-0.150;2023-08-01T04:21:14;100051.84;;;22.69;49.81
49063;BME280;34876;51.464;-0.150;2023-08-01T04:23:44;100053.96;;;22.69;49.78
49063;BME280;34876;51.464;-0.150;2023-08-01T04:26:13;100049.34;;;22.68;49.81
49063;BME280;34876;51.464;-0.150;2023-08-01T04:28:45;100052.44;;;22.67;49.80
49063;BME280;34876;51.464;-0.150;2023-08-01T04:31:15;100052.56;;;22.69;49.76
49063;BME280;34876;51.464;-0.150;2023-08-01T04:33:44;100052.02;;;22.70;49.73
49063;BME280;34876;51.464;-0.150;2023-08-01T04:36:13;100054.96;;;22.68;49.76
49063;BME280;34876;51.464;-0.150;2023-08-01T04:38:42;100056.76;;;22.68;49.75
49063;BME280;34876;51.464;-0.150;2023-08-01T04:41:11;100055.24;;;22.67;49.76
49063;BME280;34876;51.464;-0.150;2023-08-01T04:43:40;100058.60;;;22.67;49.75
49063;BME280;34876;51.464;-0.150;2023-08-01T04:46:14;100059.02;;;22.66;49.77
49063;BME280;34876;51.464;-0.150;2023-08-01T04:48:43;100065.16;;;22.68;49.72
49063;BME280;34876;51.464;-0.150;2023-08-01T04:51:13;100066.12;;;22.66;49.74
49063;BME280;34876;51.464;-0.150;2023-08-01T04:53:43;100069.83;;;22.66;49.71
49063;BME280;34876;51.464;-0.150;2023-08-01T04:56:13;100068.17;;;22.65;49.74
49063;BME280;34876;51.464;-0.150;2023-08-01T04:58:42;100073.48;;;22.65;49.76
49063;BME280;34876;51.464;-0.150;2023-08-01T05:01:16;100074.26;;;22.65;49.72
49063;BME280;34876;51.464;-0.150;2023-08-01T05:03:50;100075.18;;;22.65;49.70
49063;BME280;34876;51.464;-0.150;2023-08-01T05:06:19;100078.62;;;22.62;49.76
49063;BME280;34876;51.464;-0.150;2023-08-01T05:08:49;100082.62;;;22.59;49.84
49063;BME280;34876;51.464;-0.150;2023-08-01T05:11:18;100080.59;;;22.62;49.75
49063;BME280;34876;51.464;-0.150;2023-08-01T05:13:48;100080.43;;;22.63;49.71
49063;BME280;34876;51.464;-0.150;2023-08-01T05:16:18;100084.97;;;22.56;49.86
49063;BME280;34876;51.464;-0.150;2023-08-01T05:18:47;100090.29;;;22.64;49.66
49063;BME280;34876;51.464;-0.150;2023-08-01T05:21:17;100089.90;;;22.66;49.62
49063;BME280;34876;51.464;-0.150;2023-08-01T05:23:46;100088.52;;;22.61;49.73
49063;BME280;34876;51.464;-0.150;2023-08-01T05:26:16;100084.58;;;22.64;49.64
49063;BME280;34876;51.464;-0.150;2023-08-01T05:28:51;100091.08;;;22.64;49.63
49063;BME280;34876;51.464;-0.150;2023-08-01T05:31:20;100091.76;;;22.65;49.58
49063;BME280;34876;51.464;-0.150;2023-08-01T05:33:51;100095.25;;;22.68;49.47
49063;BME280;34876;51.464;-0.150;2023-08-01T05:36:20;100097.12;;;22.66;49.54
49063;BME280;34876;51.464;-0.150;2023-08-01T05:38:50;100096.61;;;22.62;49.64
49063;BME280;34876;51.464;-0.150;2023-08-01T05:41:20;100096.90;;;22.65;49.53
49063;BME280;34876;51.464;-0.150;2023-08-01T05:43:50;100097.91;;;22.62;49.59
49063;BME280;34876;51.464;-0.150;2023-08-01T05:46:19;100098.49;;;22.65;49.52
49063;BME280;34876;51.464;-0.150;2023-08-01T05:48:48;100099.81;;;22.66;49.47
49063;BME280;34876;51.464;-0.150;2023-08-01T05:51:17;100100.00;;;22.66;49.45
49063;BME280;34876;51.464;-0.150;2023-08-01T05:53:48;100101.01;;;22.66;49.44
49063;BME280;34876;51.464;-0.150;2023-08-01T05:56:23;100101.85;;;22.68;49.38
49063;BME280;34876;51.464;-0.150;2023-08-01T05:58:52;100100.92;;;22.67;49.40
49063;BME280;34876;51.464;-0.150;2023-08-01T06:01:22;100105.98;;;22.59;49.61
49063;BME280;34876;51.464;-0.150;2023-08-01T06:03:50;100106.35;;;22.68;49.35
49063;BME280;34876;51.464;-0.150;2023-08-01T06:06:24;100103.88;;;22.72;49.22
49063;BME280;34876;51.464;-0.150;2023-08-01T06:08:54;100106.64;;;22.73;49.17
49063;BME280;34876;51.464;-0.150;2023-08-01T06:11:30;100106.51;;;22.75;49.10
49063;BME280;34876;51.464;-0.150;2023-08-01T06:14:00;100109.36;;;22.74;49.10
49063;BME280;34876;51.464;-0.150;2023-08-01T06:16:29;100113.29;;;22.51;49.72
49063;BME280;34876;51.464;-0.150;2023-08-01T06:18:58;100117.58;;;22.68;49.27
49063;BME280;34876;51.464;-0.150;2023-08-01T06:21:28;100113.59;;;22.75;49.06
49063;BME280;34876;51.464;-0.150;2023-08-01T06:24:10;100113.74;;;22.73;49.11
49063;BME280;34876;51.464;-0.150;2023-08-01T06:26:44;100119.41;;;22.73;49.08
49063;BME280;34876;51.464;-0.150;2023-08-01T06:29:13;100120.82;;;22.79;48.94
49063;BME280;34876;51.464;-0.150;2023-08-01T06:31:42;100123.87;;;22.85;48.75
49063;BME280;34876;51.464;-0.150;2023-08-01T06:34:13;100124.45;;;22.87;48.70
49063;BME280;34876;51.464;-0.150;2023-08-01T06:36:42;100122.47;;;22.91;48.60
49063;BME280;34876;51.464;-0.150;2023-08-01T06:39:12;100125.78;;;22.87;48.67
49063;BME280;34876;51.464;-0.150;2023-08-01T06:41:41;100129.80;;;22.91;48.58
49063;BME280;34876;51.464;-0.150;2023-08-01T06:44:10;100130.26;;;22.90;48.58
49063;BME280;34876;51.464;-0.150;2023-08-01T06:46:39;100136.50;;;22.95;48.46
49063;BME280;34876;51.464;-0.150;2023-08-01T06:49:09;100135.19;;;22.78;48.84
49063;BME280;34876;51.464;-0.150;2023-08-01T06:51:39;100133.78;;;22.74;48.95
49063;BME280;34876;51.464;-0.150;2023-08-01T06:54:14;100137.77;;;22.88;48.64
49063;BME280;34876;51.464;-0.150;2023-08-01T06:56:45;100130.66;;;22.72;49.03
49063;BME280;34876;51.464;-0.150;2023-08-01T06:59:15;100137.63;;;22.75;48.97
49063;BME280;34876;51.464;-0.150;2023-08-01T07:01:45;100136.05;;;22.77;48.91
49063;BME280;34876;51.464;-0.150;2023-08-01T07:04:14;100139.69;;;22.72;49.05
49063;BME280;34876;51.464;-0.150;2023-08-01T07:06:45;100137.68;;;22.60;49.34
49063;BME280;34876;51.464;-0.150;2023-08-01T07:09:15;100138.16;;;22.76;48.92
49063;BME280;34876;51.464;-0.150;2023-08-01T07:11:46;100135.93;;;22.45;49.53
49063;BME280;34876;51.464;-0.150;2023-08-01T07:14:15;100136.24;;;22.65;49.20
49063;BME280;34876;51.464;-0.150;2023-08-01T07:16:44;100136.54;;;22.54;49.34
49063;BME280;34876;51.464;-0.150;2023-08-01T07:19:13;100141.88;;;22.62;49.27
49063;BME280;34876;51.464;-0.150;2023-08-01T07:21:42;100144.88;;;22.63;49.27
49063;BME280;34876;51.464;-0.150;2023-08-01T07:24:11;100142.69;;;22.67;49.09
49063;BME280;34876;51.464;-0.150;2023-08-01T07:26:41;100142.53;;;22.53;49.43
49063;BME280;34876;51.464;-0.150;2023-08-01T07:29:10;100139.26;;;22.74;48.88
49063;BME280;34876;51.464;-0.150;2023-08-01T07:31:39;100140.11;;;22.83;48.60
49063;BME280;34876;51.464;-0.150;2023-08-01T07:34:08;100140.40;;;22.72;48.88
49063;BME280;34876;51.464;-0.150;2023-08-01T07:36:38;100145.03;;;22.66;49.03
49063;BME280;34876;51.464;-0.150;2023-08-01T07:39:07;100146.93;;;22.47;49.42
49063;BME280;34876;51.464;-0.150;2023-08-01T07:41:36;100143.47;;;22.47;49.26
49063;BME280;34876;51.464;-0.150;2023-08-01T07:44:06;100143.02;;;22.58;49.24
49063;BME280;34876;51.464;-0.150;2023-08-01T07:46:36;100144.80;;;22.55;48.95
49063;BME280;34876;51.464;-0.150;2023-08-01T07:49:04;100143.19;;;22.79;48.66
49063;BME280;34876;51.464;-0.150;2023-08-01T07:51:34;100148.43;;;22.69;46.90
49063;BME280;34876;51.464;-0.150;2023-08-01T07:54:03;100156.38;;;22.79;48.56
49063;BME280;34876;51.464;-0.150;2023-08-01T07:56:38;100160.03;;;22.65;48.83
49063;BME280;34876;51.464;-0.150;2023-08-01T07:59:07;100157.23;;;22.88;48.36
49063;BME280;34876;51.464;-0.150;2023-08-01T08:01:36;100159.42;;;22.94;48.15
49063;BME280;34876;51.464;-0.150;2023-08-01T08:04:05;100160.19;;;22.59;47.81
49063;BME280;34876;51.464;-0.150;2023-08-01T08:06:35;100156.90;;;22.97;48.04
49063;BME280;34876;51.464;-0.150;2023-08-01T08:09:05;100155.66;;;22.89;47.94
49063;BME280;34876;51.464;-0.150;2023-08-01T08:11:34;100158.12;;;22.86;48.27
49063;BME280;34876;51.464;-0.150;2023-08-01T08:14:03;100158.43;;;23.20;47.46
49063;BME280;34876;51.464;-0.150;2023-08-01T08:16:33;100157.76;;;23.55;45.97
49063;BME280;34876;51.464;-0.150;2023-08-01T08:19:03;100158.00;;;23.22;44.15
49063;BME280;34876;51.464;-0.150;2023-08-01T08:21:32;100160.88;;;23.06;47.41
49063;BME280;34876;51.464;-0.150;2023-08-01T08:24:01;100158.13;;;22.95;47.52
49063;BME280;34876;51.464;-0.150;2023-08-01T08:26:30;100158.59;;;23.06;47.67
49063;BME280;34876;51.464;-0.150;2023-08-01T08:29:00;100159.09;;;22.47;45.27
49063;BME280;34876;51.464;-0.150;2023-08-01T08:31:30;100162.19;;;22.38;49.33
49063;BME280;34876;51.464;-0.150;2023-08-01T08:34:00;100162.99;;;22.87;47.26
49063;BME280;34876;51.464;-0.150;2023-08-01T08:36:29;100158.05;;;22.75;46.97
49063;BME280;34876;51.464;-0.150;2023-08-01T08:38:58;100161.03;;;22.48;46.92
49063;BME280;34876;51.464;-0.150;2023-08-01T08:41:27;100160.70;;;22.16;49.00
49063;BME280;34876;51.464;-0.150;2023-08-01T08:43:59;100163.84;;;22.57;48.70
49063;BME280;34876;51.464;-0.150;2023-08-01T08:46:32;100162.65;;;22.79;48.26
49063;BME280;34876;51.464;-0.150;2023-08-01T08:49:03;100160.90;;;22.75;48.27
49063;BME280;34876;51.464;-0.150;2023-08-01T08:51:34;100162.30;;;22.86;47.68
49063;BME280;34876;51.464;-0.150;2023-08-01T08:54:05;100166.21;;;22.17;49.61
49063;BME280;34876;51.464;-0.150;2023-08-01T08:56:35;100162.81;;;22.51;44.31
49063;BME280;34876;51.464;-0.150;2023-08-01T08:59:05;100157.65;;;22.66;48.48
49063;BME280;34876;51.464;-0.150;2023-08-01T09:01:37;100153.77;;;22.63;47.90
49063;BME280;34876;51.464;-0.150;2023-08-01T09:04:15;100156.16;;;22.81;47.75
49063;BME280;34876;51.464;-0.150;2023-08-01T09:06:45;100159.46;;;22.44;47.40
49063;BME280;34876;51.464;-0.150;2023-08-01T09:09:15;100160.53;;;22.42;48.95
49063;BME280;34876;51.464;-0.150;2023-08-01T09:11:45;100161.07;;;22.66;43.99
49063;BME280;34876;51.464;-0.150;2023-08-01T09:14:19;100165.59;;;22.57;48.64
49063;BME280;34876;51.464;-0.150;2023-08-01T09:16:49;100170.66;;;22.56;48.58
49063;BME280;34876;51.464;-0.150;2023-08-01T09:19:18;100168.66;;;22.71;48.30
49063;BME280;34876;51.464;-0.150;2023-08-01T09:21:48;100170.56;;;22.70;48.36
49063;BME280;34876;51.464;-0.150;2023-08-01T09:24:20;100168.96;;;22.44;46.68
49063;BME280;34876;51.464;-0.150;2023-08-01T09:26:50;100170.95;;;22.93;47.70
49063;BME280;34876;51.464;-0.150;2023-08-01T09:29:21;100164.27;;;22.87;47.52
49063;BME280;34876;51.464;-0.150;2023-08-01T09:31:51;100170.39;;;22.76;47.42
49063;BME280;34876;51.464;-0.150;2023-08-01T09:34:22;100173.60;;;22.70;47.85
49063;BME280;34876;51.464;-0.150;2023-08-01T09:36:58;100173.44;;;22.88;47.68
49063;BME280;34876;51.464;-0.150;2023-08-01T09:39:27;100177.29;;;22.80;48.03
49063;BME280;34876;51.464;-0.150;2023-08-01T09:41:57;100177.44;;;22.95;47.26
49063;BME280;34876;51.464;-0.150;2023-08-01T09:44:29;100174.85;;;22.67;48.06
49063;BME280;34876;51.464;-0.150;2023-08-01T09:47:00;100175.66;;;22.80;47.96
49063;BME280;34876;51.464;-0.150;2023-08-01T09:49:31;100176.37;;;22.80;44.18
49063;BME280;34876;51.464;-0.150;2023-08-01T09:52:01;100176.96;;;22.80;47.45
49063;BME280;34876;51.464;-0.150;2023-08-01T09:54:31;100180.37;;;22.34;48.19
49063;BME280;34876;51.464;-0.150;2023-08-01T09:57:02;100185.59;;;22.80;47.94
49063;BME280;34876;51.464;-0.150;2023-08-01T09:59:34;100183.18;;;22.79;47.91
49063;BME280;34876;51.464;-0.150;2023-08-01T10:02:05;100184.65;;;22.34;48.53
49063;BME280;34876;51.464;-0.150;2023-08-01T10:04:47;100192.20;;;22.46;48.43
49063;BME280;34876;51.464;-0.150;2023-08-01T10:07:23;100190.82;;;22.35;42.83
49063;BME280;34876;51.464;-0.150;2023-08-01T10:09:53;100190.38;;;22.81;47.64
49063;BME280;34876;51.464;-0.150;2023-08-01T10:12:26;100194.95;;;22.73;43.79
49063;BME280;34876;51.464;-0.150;2023-08-01T10:15:00;100198.36;;;22.79;47.76
49063;BME280;34876;51.464;-0.150;2023-08-01T10:17:31;100191.41;;;22.33;44.56
49063;BME280;34876;51.464;-0.150;2023-08-01T10:20:01;100197.94;;;22.19;47.35
49063;BME280;34876;51.464;-0.150;2023-08-01T10:22:31;100195.40;;;22.67;48.02
49063;BME280;34876;51.464;-0.150;2023-08-01T10:25:01;100186.86;;;22.91;47.50
49063;BME280;34876;51.464;-0.150;2023-08-01T10:27:33;100187.03;;;22.69;45.04
49063;BME280;34876;51.464;-0.150;2023-08-01T10:30:04;100183.71;;;22.35;44.31
49063;BME280;34876;51.464;-0.150;2023-08-01T10:32:35;100187.37;;;22.60;47.69
49063;BME280;34876;51.464;-0.150;2023-08-01T10:35:05;100180.28;;;22.73;46.97
49063;BME280;34876;51.464;-0.150;2023-08-01T10:37:39;100178.47;;;22.98;47.04
49063;BME280;34876;51.464;-0.150;2023-08-01T10:40:08;100180.44;;;22.96;42.52
49063;BME280;34876;51.464;-0.150;2023-08-01T10:42:40;100179.15;;;22.94;47.19
49063;BME280;34876;51.464;-0.150;2023-08-01T10:45:20;100175.75;;;23.02;46.56
49063;BME280;34876;51.464;-0.150;2023-08-01T10:47:49;100172.64;;;23.11;46.42
49063;BME280;34876;51.464;-0.150;2023-08-01T10:50:19;100176.90;;;22.40;47.50
49063;BME280;34876;51.464;-0.150;2023-08-01T10:52:49;100171.40;;;23.06;46.93
49063;BME280;34876;51.464;-0.150;2023-08-01T10:55:18;100175.65;;;22.88;46.81
49063;BME280;34876;51.464;-0.150;2023-08-01T10:57:50;100179.01;;;22.87;41.51
49063;BME280;34876;51.464;-0.150;2023-08-01T11:00:19;100183.85;;;22.89;47.29
49063;BME280;34876;51.464;-0.150;2023-08-01T11:02:49;100185.80;;;22.63;47.63
49063;BME280;34876;51.464;-0.150;2023-08-01T11:05:21;100182.31;;;22.42;45.89
49063;BME280;34876;51.464;-0.150;2023-08-01T11:07:54;100183.31;;;21.65;46.02
49063;BME280;34876;51.464;-0.150;2023-08-01T11:10:25;100181.19;;;21.98;48.11
49063;BME280;34876;51.464;-0.150;2023-08-01T11:12:55;100181.20;;;22.70;47.80
49063;BME280;34876;51.464;-0.150;2023-08-01T11:15:25;100186.12;;;22.84;47.48
49063;BME280;34876;51.464;-0.150;2023-08-01T11:17:56;100185.22;;;22.71;47.71
49063;BME280;34876;51.464;-0.150;2023-08-01T11:20:26;100182.00;;;22.70;41.80
49063;BME280;34876;51.464;-0.150;2023-08-01T11:22:57;100180.50;;;22.86;47.26
49063;BME280;34876;51.464;-0.150;2023-08-01T11:25:35;100183.98;;;22.62;40.67
49063;BME280;34876;51.464;-0.150;2023-08-01T11:28:06;100190.04;;;22.62;45.34
49063;BME280;34876;51.464;-0.150;2023-08-01T11:30:36;100195.49;;;22.82;44.59
49063;BME280;34876;51.464;-0.150;2023-08-01T11:33:15;100194.85;;;22.75;40.75
49063;BME280;34876;51.464;-0.150;2023-08-01T11:35:45;100193.33;;;22.60;46.76
49063;BME280;34876;51.464;-0.150;2023-08-01T11:38:15;100196.81;;;22.81;47.49
49063;BME280;34876;51.464;-0.150;2023-08-01T11:40:46;100192.29;;;22.99;46.15
49063;BME280;34876;51.464;-0.150;2023-08-01T11:43:15;100194.70;;;22.73;41.38
49063;BME280;34876;51.464;-0.150;2023-08-01T11:45:51;100192.60;;;22.93;44.74
49063;BME280;34876;51.464;-0.150;2023-08-01T11:48:21;100190.70;;;22.51;40.35
49063;BME280;34876;51.464;-0.150;2023-08-01T11:50:56;100187.41;;;22.96;47.05
49063;BME280;34876;51.464;-0.150;2023-08-01T11:53:31;100185.48;;;22.85;47.11
49063;BME280;34876;51.464;-0.150;2023-08-01T11:56:01;100187.32;;;22.84;46.81
49063;BME280;34876;51.464;-0.150;2023-08-01T11:58:32;100185.43;;;23.09;46.43
49063;BME280;34876;51.464;-0.150;2023-08-01T12:01:04;100188.71;;;22.81;46.89
49063;BME280;34876;51.464;-0.150;2023-08-01T12:03:43;100189.21;;;22.83;47.15
49063;BME280;34876;51.464;-0.150;2023-08-01T12:06:13;100183.92;;;23.06;46.18
49063;BME280;34876;51.464;-0.150;2023-08-01T12:09:06;100182.01;;;22.99;42.37
49063;BME280;34876;51.464;-0.150;2023-08-01T12:11:35;100178.65;;;23.06;41.77
49063;BME280;34876;51.464;-0.150;2023-08-01T12:14:08;100178.15;;;22.77;45.99
49063;BME280;34876;51.464;-0.150;2023-08-01T12:16:40;100177.42;;;22.87;45.74
49063;BME280;34876;51.464;-0.150;2023-08-01T12:19:17;100175.38;;;22.76;40.82
49063;BME280;34876;51.464;-0.150;2023-08-01T12:21:47;100180.42;;;22.74;46.14
49063;BME280;34876;51.464;-0.150;2023-08-01T12:24:22;100183.69;;;22.68;40.06
49063;BME280;34876;51.464;-0.150;2023-08-01T12:26:57;100184.36;;;23.08;44.94
49063;BME280;34876;51.464;-0.150;2023-08-01T12:29:27;100173.12;;;23.00;46.69
49063;BME280;34876;51.464;-0.150;2023-08-01T12:31:56;100177.94;;;22.82;47.03
49063;BME280;34876;51.464;-0.150;2023-08-01T12:34:25;100178.31;;;22.67;40.73
49063;BME280;34876;51.464;-0.150;2023-08-01T12:36:54;100176.17;;;23.00;46.75
49063;BME280;34876;51.464;-0.150;2023-08-01T12:39:24;100176.53;;;22.93;46.73
49063;BME280;34876;51.464;-0.150;2023-08-01T12:41:53;100180.77;;;22.87;45.46
49063;BME280;34876;51.464;-0.150;2023-08-01T12:44:22;100177.07;;;22.88;44.25
49063;BME280;34876;51.464;-0.150;2023-08-01T12:46:50;100175.19;;;22.54;40.86
49063;BME280;34876;51.464;-0.150;2023-08-01T12:49:21;100176.05;;;22.78;47.04
49063;BME280;34876;51.464;-0.150;2023-08-01T12:51:50;100173.16;;;22.80;44.53
49063;BME280;34876;51.464;-0.150;2023-08-01T12:54:18;100173.98;;;22.64;47.29
49063;BME280;34876;51.464;-0.150;2023-08-01T12:56:49;100171.25;;;22.49;41.48
49063;BME280;34876;51.464;-0.150;2023-08-01T12:59:19;100169.89;;;22.56;47.60
49063;BME280;34876;51.464;-0.150;2023-08-01T13:01:50;100169.16;;;23.13;46.32